Time;durP1;ratioP1;P1;durP2;ratioP2;P2;SDS_P1;SDS_P2;PMS_P1;PMS_P2;Temp;Humidity;BMP_temperature;BMP_pressure;BME280_temperature;BME280_humidity;BME280_pressure;Samples;Min_cycle;Max_cycle;Signal;HPM_P1;HPM_P2
2023/03/24 00:00:45;;;;;;;4.60;3.40;;;13.70;99.90;;;;;;4922378;29;20031;-73
2023/03/24 00:03:11;;;;;;;5.45;3.40;;;13.80;99.90;;;;;;4925108;29;20028;-73
2023/03/24 00:05:37;;;;;;;5.22;4.13;;;13.70;99.90;;;;;;4927372;29;20644;-73
2023/03/24 00:08:04;;;;;;;3.45;3.15;;;13.70;99.90;;;;;;4927915;29;20028;-74
2023/03/24 00:10:33;;;;;;;4.38;3.58;;;13.70;99.90;;;;;;4928055;29;20039;-74
2023/03/24 00:12:59;;;;;;;6.55;3.75;;;13.80;99.90;;;;;;4923448;29;20030;-74
2023/03/24 00:15:26;;;;;;;4.53;4.05;;;13.80;99.90;;;;;;4925362;29;20452;-74
2023/03/24 00:17:54;;;;;;;4.75;3.20;;;13.70;99.90;;;;;;4927837;29;20024;-74
2023/03/24 00:20:21;;;;;;;3.78;3.45;;;13.70;99.90;;;;;;4923936;29;20403;-74
2023/03/24 00:22:55;;;;;;;6.38;3.40;;;13.70;99.90;;;;;;4926279;29;20365;-74
2023/03/24 00:25:27;;;;;;;4.68;3.10;;;13.80;99.90;;;;;;4923667;29;20028;-74
2023/03/24 00:27:54;;;;;;;4.73;2.80;;;13.80;99.90;;;;;;4927501;29;20028;-74
2023/03/24 00:30:20;;;;;;;5.10;2.58;;;13.80;99.90;;;;;;4924328;29;20039;-74
2023/03/24 00:32:45;;;;;;;4.95;2.90;;;13.80;99.90;;;;;;4924269;29;20027;-74
2023/03/24 00:35:15;;;;;;;3.72;2.90;;;13.80;99.90;;;;;;4929326;29;20043;-74
2023/03/24 00:37:43;;;;;;;5.00;2.97;;;13.80;99.90;;;;;;4925348;29;20495;-73
2023/03/24 00:40:15;;;;;;;4.95;2.92;;;13.70;99.90;;;;;;4929099;29;20110;-74
2023/03/24 00:42:44;;;;;;;3.60;2.20;;;13.70;99.90;;;;;;4927407;29;20028;-74
2023/03/24 00:45:12;;;;;;;5.50;3.22;;;13.70;99.90;;;;;;4930133;29;20610;-74
2023/03/24 00:47:38;;;;;;;3.45;3.08;;;13.70;99.90;;;;;;4927159;29;20036;-74
2023/03/24 00:50:06;;;;;;;3.30;2.70;;;13.70;99.90;;;;;;4928026;29;20027;-74
2023/03/24 00:52:35;;;;;;;3.67;2.88;;;13.80;99.90;;;;;;4925692;29;20024;-73
2023/03/24 00:55:05;;;;;;;4.78;2.75;;;13.80;99.90;;;;;;4923010;29;20036;-74
2023/03/24 00:57:35;;;;;;;4.63;2.85;;;13.90;99.90;;;;;;4927270;29;20038;-74
2023/03/24 01:00:13;;;;;;;3.83;3.38;;;13.90;99.90;;;;;;4924719;29;20111;-74
2023/03/24 01:02:39;;;;;;;3.20;2.47;;;13.90;99.90;;;;;;4929377;29;20028;-74
2023/03/24 01:05:05;;;;;;;3.38;2.78;;;13.80;99.90;;;;;;4930203;29;20027;-74
2023/03/24 01:07:32;;;;;;;6.05;2.97;;;13.80;99.90;;;;;;4926222;29;20024;-74
2023/03/24 01:09:58;;;;;;;4.53;2.60;;;13.90;99.90;;;;;;4934654;29;20113;-74
2023/03/24 01:12:35;;;;;;;3.70;2.40;;;13.80;99.90;;;;;;4927278;29;20119;-75
2023/03/24 01:15:05;;;;;;;4.90;2.50;;;13.90;99.90;;;;;;4932526;29;20763;-73
2023/03/24 01:17:33;;;;;;;5.25;2.55;;;13.80;99.90;;;;;;4927656;29;20477;-73
2023/03/24 01:19:59;;;;;;;6.65;3.13;;;13.80;99.90;;;;;;4927203;28;20111;-75
2023/03/24 01:22:29;;;;;;;2.63;2.38;;;13.80;99.90;;;;;;4932894;29;20427;-74
2023/03/24 01:24:55;;;;;;;3.75;2.78;;;13.70;99.90;;;;;;4925992;29;20028;-74
2023/03/24 01:27:21;;;;;;;3.30;2.65;;;13.70;99.90;;;;;;4929438;29;20384;-74
2023/03/24 01:29:46;;;;;;;3.92;2.72;;;13.80;99.90;;;;;;4925359;29;20049;-75
2023/03/24 01:32:12;;;;;;;4.07;2.90;;;13.80;99.90;;;;;;4929754;29;20397;-74
2023/03/24 01:34:38;;;;;;;7.18;2.85;;;13.80;99.90;;;;;;4922897;29;20043;-74
2023/03/24 01:37:04;;;;;;;3.35;3.05;;;13.80;99.90;;;;;;4929653;29;20443;-74
2023/03/24 01:39:31;;;;;;;3.17;2.67;;;13.80;99.90;;;;;;4923922;29;20032;-74
2023/03/24 01:41:57;;;;;;;3.90;2.80;;;13.80;99.90;;;;;;4927968;29;20107;-75
2023/03/24 01:44:32;;;;;;;3.67;3.30;;;13.80;99.90;;;;;;4926650;29;20103;-74
2023/03/24 01:46:59;;;;;;;4.70;3.28;;;13.80;99.90;;;;;;4927846;29;20056;-73
2023/03/24 01:49:59;;;;;;;4.22;3.03;;;13.80;99.90;;;;;;4933937;29;20381;-74
2023/03/24 01:52:29;;;;;;;4.53;3.50;;;13.70;99.90;;;;;;4936343;29;20528;-74
2023/03/24 01:54:59;;;;;;;6.00;3.85;;;13.80;99.90;;;;;;4924770;29;20520;-76
2023/03/24 01:57:41;;;;;;;5.20;3.65;;;13.80;99.90;;;;;;4921290;29;20024;-75
2023/03/24 02:00:11;;;;;;;4.60;4.03;;;13.80;99.90;;;;;;4929328;29;20496;-74
2023/03/24 02:02:39;;;;;;;6.07;3.58;;;13.80;99.90;;;;;;4927027;28;20469;-75
2023/03/24 02:05:09;;;;;;;7.72;3.80;;;13.80;99.90;;;;;;4930569;29;20115;-75
2023/03/24 02:07:53;;;;;;;4.88;3.70;;;13.80;99.90;;;;;;4928483;29;20053;-75
2023/03/24 02:10:20;;;;;;;4.03;3.60;;;13.80;99.90;;;;;;4925086;29;20032;-76
2023/03/24 02:12:46;;;;;;;4.88;3.85;;;13.80;99.90;;;;;;4921680;29;20035;-76
2023/03/24 02:15:14;;;;;;;7.18;4.63;;;13.80;99.90;;;;;;4932183;29;20024;-76
2023/03/24 02:17:50;;;;;;;5.95;3.70;;;13.80;99.90;;;;;;4927757;29;20952;-75
2023/03/24 02:20:25;;;;;;;4.40;3.67;;;13.80;99.90;;;;;;4928218;29;20065;-76
2023/03/24 02:23:28;;;;;;;4.70;4.20;;;13.80;99.90;;;;;;4926033;29;20032;-75
2023/03/24 02:26:30;;;;;;;4.93;3.70;;;13.90;99.90;;;;;;4928324;29;20392;-76
2023/03/24 02:29:32;;;;;;;3.72;3.38;;;13.80;99.90;;;;;;4922542;29;20118;-76
2023/03/24 02:32:16;;;;;;;3.95;3.47;;;13.80;99.90;;;;;;4928485;29;20451;-76
2023/03/24 02:35:16;;;;;;;7.05;4.05;;;13.90;99.90;;;;;;4924123;29;20138;-76
2023/03/24 02:38:02;;;;;;;5.80;3.92;;;13.90;99.90;;;;;;4933613;29;20036;-74
2023/03/24 02:40:36;;;;;;;5.43;4.18;;;13.80;99.90;;;;;;4929437;29;20083;-75
2023/03/24 02:43:28;;;;;;;6.03;4.07;;;13.90;99.90;;;;;;4922404;29;20253;-74
2023/03/24 02:46:23;;;;;;;5.45;3.78;;;13.90;99.90;;;;;;4924718;29;20087;-75
2023/03/24 02:48:56;;;;;;;6.35;4.45;;;13.90;99.90;;;;;;4920412;29;20027;-75
2023/03/24 02:51:34;;;;;;;5.57;4.13;;;13.90;99.90;;;;;;4927089;29;20110;-74
2023/03/24 02:54:25;;;;;;;4.70;3.78;;;13.90;99.90;;;;;;4923604;29;20028;-75
2023/03/24 02:57:38;;;;;;;7.07;3.88;;;13.90;99.90;;;;;;4923308;29;20485;-74
2023/03/24 03:00:20;;;;;;;5.75;3.60;;;13.90;99.90;;;;;;4928083;29;20043;-75
2023/03/24 03:03:07;;;;;;;6.07;3.80;;;13.90;99.90;;;;;;4922835;29;20046;-75
2023/03/24 03:05:45;;;;;;;4.78;4.00;;;13.90;99.90;;;;;;4939820;28;20031;-75
2023/03/24 03:08:13;;;;;;;4.85;4.43;;;13.90;99.90;;;;;;4932496;29;20111;-76
2023/03/24 03:10:43;;;;;;;5.60;3.70;;;13.90;99.90;;;;;;4921946;29;20570;-75
2023/03/24 03:13:19;;;;;;;6.95;4.55;;;13.90;99.90;;;;;;4930366;29;20040;-76
2023/03/24 03:15:51;;;;;;;4.68;3.55;;;13.90;99.90;;;;;;4924118;29;20044;-75
2023/03/24 03:19:08;;;;;;;6.97;4.35;;;13.90;99.90;;;;;;4945585;28;20023;-76
2023/03/24 03:21:40;;;;;;;7.45;3.50;;;13.90;99.90;;;;;;4924342;29;20036;-76
2023/03/24 03:24:10;;;;;;;5.53;2.60;;;13.90;99.90;;;;;;4929266;29;20449;-75
2023/03/24 03:26:36;;;;;;;2.63;2.33;;;13.80;99.90;;;;;;4922406;29;20299;-75
2023/03/24 03:29:15;;;;;;;1.67;1.30;;;13.70;99.90;;;;;;4931837;29;20519;-74
2023/03/24 03:31:49;;;;;;;1.13;1.05;;;13.60;99.90;;;;;;4921142;29;20087;-75
2023/03/24 03:34:50;;;;;;;2.45;1.77;;;13.60;99.90;;;;;;4926171;29;20056;-78
2023/03/24 03:37:30;;;;;;;5.93;1.58;;;13.50;99.90;;;;;;4923194;29;20485;-75
2023/03/24 03:40:08;;;;;;;1.70;1.10;;;13.60;99.90;;;;;;4928389;29;20043;-77
2023/03/24 03:42:34;;;;;;;2.13;1.48;;;13.60;99.90;;;;;;4927057;29;20032;-76
2023/03/24 03:45:00;;;;;;;1.58;1.27;;;13.60;99.90;;;;;;4924121;29;20012;-77
2023/03/24 03:47:26;;;;;;;2.63;1.23;;;13.60;99.90;;;;;;4925877;29;20039;-76
2023/03/24 03:49:52;;;;;;;3.75;1.00;;;13.50;99.90;;;;;;4921966;29;20111;-77
2023/03/24 03:52:18;;;;;;;4.82;1.00;;;13.40;99.90;;;;;;4919713;29;20025;-77
2023/03/24 03:54:44;;;;;;;3.10;1.17;;;13.20;99.90;;;;;;4927899;29;20413;-77
2023/03/24 03:57:12;;;;;;;2.67;1.00;;;13.10;99.90;;;;;;4926059;29;20032;-77
2023/03/24 03:59:38;;;;;;;4.35;1.40;;;13.00;99.90;;;;;;4921948;29;20019;-77
2023/03/24 04:02:30;;;;;;;6.22;0.93;;;12.90;99.90;;;;;;4923946;29;20020;-77
2023/03/24 04:04:56;;;;;;;3.60;1.10;;;12.90;99.90;;;;;;4919099;29;20039;-76
2023/03/24 04:07:27;;;;;;;4.43;1.00;;;12.90;99.90;;;;;;4923733;29;20028;-77
2023/03/24 04:10:20;;;;;;;2.10;0.90;;;12.90;99.90;;;;;;4924063;29;20047;-77
2023/03/24 04:12:53;;;;;;;5.22;1.33;;;12.80;99.90;;;;;;4928443;29;20060;-77
2023/03/24 04:15:27;;;;;;;;;;;12.90;99.90;;;;;;4932371;29;20036;-75
2023/03/24 04:18:29;;;;;;;3.67;1.60;;;12.80;99.90;;;;;;4931273;28;20360;-77
2023/03/24 04:21:16;;;;;;;5.47;1.60;;;12.80;99.90;;;;;;4927593;29;20059;-77
2023/03/24 04:23:48;;;;;;;4.88;1.75;;;12.80;99.90;;;;;;4935681;29;20059;-77
2023/03/24 04:26:25;;;;;;;;;;;12.90;99.90;;;;;;4930209;29;20106;-75
2023/03/24 04:29:17;;;;;;;4.25;1.65;;;12.80;99.90;;;;;;4926636;29;20319;-76
2023/03/24 04:32:18;;;;;;;5.13;2.03;;;12.80;99.90;;;;;;4927892;29;20028;-76
2023/03/24 04:34:49;;;;;;;11.55;2.60;;;12.70;99.90;;;;;;4935199;29;20032;-76
2023/03/24 04:37:25;;;;;;;6.55;1.45;;;12.50;99.90;;;;;;4933744;29;20043;-76
2023/03/24 04:39:57;;;;;;;3.95;1.42;;;12.50;99.90;;;;;;4953705;28;20161;-77
2023/03/24 04:42:36;;;;;;;5.53;1.60;;;12.50;99.90;;;;;;4927328;29;20039;-76
2023/03/24 04:45:04;;;;;;;3.70;1.10;;;12.50;99.90;;;;;;4927249;29;20489;-77
2023/03/24 04:47:37;;;;;;;6.15;1.80;;;12.60;99.90;;;;;;4936064;29;20038;-77
2023/03/24 04:50:10;;;;;;;4.93;1.65;;;12.50;99.90;;;;;;4932023;29;20079;-76
2023/03/24 04:52:38;;;;;;;5.03;1.95;;;12.40;99.90;;;;;;4926834;29;20032;-77
2023/03/24 04:55:31;;;;;;;4.88;1.30;;;12.40;99.90;;;;;;4933656;29;20126;-77
2023/03/24 04:57:57;;;;;;;7.53;1.90;;;12.30;99.90;;;;;;4924026;29;20070;-76
2023/03/24 05:00:23;;;;;;;9.73;1.80;;;12.40;99.90;;;;;;4930050;29;20035;-76
2023/03/24 05:02:50;;;;;;;12.73;1.85;;;12.30;99.90;;;;;;4922752;29;20051;-77
2023/03/24 05:05:17;;;;;;;5.50;1.52;;;12.30;99.90;;;;;;4923957;29;20161;-76
2023/03/24 05:07:43;;;;;;;6.15;1.73;;;12.20;99.90;;;;;;4935381;29;20036;-77
2023/03/24 05:10:10;;;;;;;8.73;1.90;;;12.30;99.90;;;;;;4933913;29;20032;-76
2023/03/24 05:12:35;;;;;;;6.70;2.17;;;12.20;99.90;;;;;;4934859;28;20104;-76
2023/03/24 05:15:01;;;;;;;10.40;1.98;;;12.20;99.90;;;;;;4935810;28;20453;-76
2023/03/24 05:17:27;;;;;;;8.18;2.10;;;12.20;99.90;;;;;;4930851;29;20025;-76
2023/03/24 05:19:52;;;;;;;11.10;2.22;;;12.10;99.90;;;;;;4929341;29;20137;-76
2023/03/24 05:22:18;;;;;;;11.50;2.80;;;12.10;99.90;;;;;;4928132;29;20028;-76
2023/03/24 05:24:44;;;;;;;8.25;1.60;;;12.00;99.90;;;;;;4931161;28;20019;-76
2023/03/24 05:27:09;;;;;;;8.23;2.00;;;12.00;99.90;;;;;;4930313;29;20465;-76
2023/03/24 05:29:35;;;;;;;10.35;2.40;;;12.10;99.90;;;;;;4930565;29;20023;-76
2023/03/24 05:32:01;;;;;;;10.30;2.25;;;12.00;99.90;;;;;;4930757;29;20034;-76
2023/03/24 05:34:27;;;;;;;12.27;2.67;;;12.00;99.90;;;;;;4930462;29;20100;-76
2023/03/24 05:36:52;;;;;;;13.75;2.50;;;12.10;99.90;;;;;;4937118;29;20067;-76
2023/03/24 05:39:18;;;;;;;8.70;1.77;;;12.00;99.90;;;;;;4928755;29;20030;-75
2023/03/24 05:41:44;;;;;;;11.98;2.08;;;12.00;99.90;;;;;;4927803;29;20111;-76
2023/03/24 05:44:09;;;;;;;8.80;2.50;;;11.90;99.90;;;;;;4926519;29;20081;-76
2023/03/24 05:46:36;;;;;;;13.35;2.17;;;12.00;99.90;;;;;;4925434;29;20046;-76
2023/03/24 05:49:02;;;;;;;16.33;2.92;;;11.80;99.90;;;;;;4932590;29;20106;-76
2023/03/24 05:51:28;;;;;;;8.27;2.35;;;11.80;99.90;;;;;;4925670;29;20110;-75
2023/03/24 05:53:53;;;;;;;10.18;2.33;;;11.80;99.90;;;;;;4925585;29;20480;-76
2023/03/24 05:56:19;;;;;;;17.63;3.13;;;11.70;99.90;;;;;;4925237;29;20066;-76
2023/03/24 05:58:44;;;;;;;13.35;2.95;;;11.80;99.90;;;;;;4927353;29;20028;-76
2023/03/24 06:01:11;;;;;;;10.75;2.20;;;11.80;99.90;;;;;;4931303;29;20042;-76
2023/03/24 06:03:37;;;;;;;13.57;2.58;;;11.90;99.90;;;;;;4934537;29;20428;-75
2023/03/24 06:06:08;;;;;;;8.57;2.00;;;11.90;99.90;;;;;;4931228;29;20465;-75
2023/03/24 06:08:34;;;;;;;13.85;2.42;;;11.90;99.90;;;;;;4928705;28;20693;-75
2023/03/24 06:11:03;;;;;;;13.07;2.25;;;11.90;99.90;;;;;;4941285;28;20123;-76
2023/03/24 06:13:31;;;;;;;11.27;2.13;;;11.90;99.90;;;;;;4925814;29;20493;-76
2023/03/24 06:15:58;;;;;;;11.30;2.58;;;12.00;99.90;;;;;;4923124;29;20043;-76
2023/03/24 06:18:29;;;;;;;11.25;2.30;;;12.00;99.90;;;;;;4932073;28;20481;-75
2023/03/24 06:20:55;;;;;;;10.80;2.20;;;12.00;99.90;;;;;;4926466;29;20099;-76
2023/03/24 06:23:26;;;;;;;7.82;1.83;;;12.00;99.90;;;;;;4931967;29;20020;-76
2023/03/24 06:25:53;;;;;;;15.13;2.22;;;12.00;99.90;;;;;;4923347;29;20059;-75
2023/03/24 06:28:19;;;;;;;12.38;2.42;;;12.00;99.90;;;;;;4928392;29;20051;-76
2023/03/24 06:30:45;;;;;;;13.40;2.58;;;11.90;99.90;;;;;;4924917;29;20082;-76
2023/03/24 06:33:16;;;;;;;15.55;2.45;;;11.90;99.90;;;;;;4925974;29;20485;-76
2023/03/24 06:35:42;;;;;;;10.10;2.20;;;11.90;99.90;;;;;;4925917;29;20119;-76
2023/03/24 06:38:07;;;;;;;11.60;2.60;;;11.90;99.90;;;;;;4929495;29;20133;-75
2023/03/24 06:40:34;;;;;;;11.43;2.90;;;12.00;99.90;;;;;;4925241;29;20039;-76
2023/03/24 06:42:59;;;;;;;9.57;2.10;;;12.00;99.90;;;;;;4929745;28;20115;-78
2023/03/24 06:45:26;;;;;;;12.88;3.00;;;12.00;99.90;;;;;;4929273;29;20052;-77
2023/03/24 06:47:56;;;;;;;9.95;2.33;;;11.90;99.90;;;;;;4931461;29;20095;-75
2023/03/24 06:50:25;;;;;;;14.13;2.38;;;12.00;99.90;;;;;;4928782;29;20489;-76
2023/03/24 06:52:52;;;;;;;11.25;3.03;;;12.00;99.90;;;;;;4933051;29;20083;-75
2023/03/24 06:55:18;;;;;;;12.90;2.40;;;11.90;99.90;;;;;;4928035;29;20035;-76
2023/03/24 06:57:44;;;;;;;9.98;2.67;;;12.00;99.90;;;;;;4932800;29;20098;-76
2023/03/24 07:00:10;;;;;;;13.70;2.25;;;12.00;99.90;;;;;;4924786;29;20118;-76
2023/03/24 07:02:37;;;;;;;14.32;2.92;;;12.10;99.90;;;;;;4930584;29;20023;-76
2023/03/24 07:05:07;;;;;;;16.13;3.45;;;12.20;99.90;;;;;;4923287;29;20118;-77
2023/03/24 07:07:34;;;;;;;13.43;2.67;;;12.10;99.90;;;;;;4927421;29;20052;-76
2023/03/24 07:10:01;;;;;;;15.57;2.90;;;12.20;99.90;;;;;;4926545;29;20087;-76
2023/03/24 07:12:27;;;;;;;20.80;3.20;;;12.20;99.90;;;;;;4923488;29;20019;-76
2023/03/24 07:14:54;;;;;;;12.98;3.00;;;12.20;99.90;;;;;;4927716;29;20040;-76
2023/03/24 07:17:20;;;;;;;15.63;3.50;;;12.30;99.90;;;;;;4928935;29;20458;-76
2023/03/24 07:19:46;;;;;;;9.63;2.78;;;12.30;99.90;;;;;;4925841;29;20102;-76
2023/03/24 07:22:12;;;;;;;17.70;3.55;;;12.30;99.90;;;;;;4926670;29;20038;-76
2023/03/24 07:24:38;;;;;;;13.30;2.75;;;12.30;99.90;;;;;;4922977;29;20024;-76
2023/03/24 07:27:03;;;;;;;10.93;3.08;;;12.30;99.90;;;;;;4931949;29;20063;-76
2023/03/24 07:29:29;;;;;;;13.18;3.20;;;12.30;99.90;;;;;;4920153;29;20028;-76
2023/03/24 07:31:57;;;;;;;15.95;3.15;;;12.40;99.90;;;;;;4928683;29;20513;-76
2023/03/24 07:34:27;;;;;;;17.90;2.92;;;12.40;99.90;;;;;;4925603;29;20028;-76
2023/03/24 07:36:53;;;;;;;17.00;3.38;;;12.50;99.90;;;;;;4929532;29;20396;-76
2023/03/24 07:39:19;;;;;;;13.88;3.35;;;12.50;99.90;;;;;;4925506;29;20107;-76
2023/03/24 07:41:45;;;;;;;11.68;3.28;;;12.60;99.90;;;;;;4923017;29;20032;-76
2023/03/24 07:44:12;;;;;;;22.20;3.75;;;12.60;99.90;;;;;;4925536;29;20535;-76
2023/03/24 07:46:38;;;;;;;11.10;2.65;;;12.70;99.90;;;;;;4938016;29;20082;-76
2023/03/24 07:49:03;;;;;;;14.77;3.08;;;12.70;99.90;;;;;;4935724;29;20032;-76
2023/03/24 07:51:29;;;;;;;14.40;2.80;;;12.80;99.90;;;;;;4927437;29;20492;-76
2023/03/24 07:53:55;;;;;;;15.20;3.20;;;12.80;99.90;;;;;;4934938;29;20420;-76
2023/03/24 07:56:20;;;;;;;18.80;3.08;;;12.90;99.90;;;;;;4933018;29;20047;-76
2023/03/24 07:58:46;;;;;;;17.50;3.50;;;13.00;99.90;;;;;;4927232;29;20019;-76
2023/03/24 08:01:13;;;;;;;16.13;3.58;;;13.10;99.90;;;;;;4930437;29;20042;-76
2023/03/24 08:03:41;;;;;;;14.40;3.00;;;13.10;99.90;;;;;;4932587;29;20114;-76
2023/03/24 08:06:08;;;;;;;21.00;3.35;;;13.20;99.90;;;;;;4932567;29;20397;-76
2023/03/24 08:08:35;;;;;;;15.52;2.78;;;13.30;99.90;;;;;;4942608;29;20027;-76
2023/03/24 08:11:01;;;;;;;12.40;3.08;;;13.30;99.90;;;;;;4928727;29;20039;-76
2023/03/24 08:13:27;;;;;;;13.02;3.00;;;13.40;99.90;;;;;;4926469;29;20385;-76
2023/03/24 08:15:52;;;;;;;23.23;3.65;;;13.40;99.90;;;;;;4925436;29;20048;-76
2023/03/24 08:18:20;;;;;;;17.70;3.53;;;13.40;99.90;;;;;;4927078;29;20729;-76
2023/03/24 08:20:47;;;;;;;11.00;2.95;;;13.60;99.90;;;;;;4928777;29;20032;-76
2023/03/24 08:23:13;;;;;;;16.38;3.10;;;13.70;99.90;;;;;;4930338;28;20031;-76
2023/03/24 08:25:39;;;;;;;11.20;2.50;;;13.70;99.90;;;;;;4929259;29;20098;-76
2023/03/24 08:28:05;;;;;;;9.70;2.45;;;13.70;99.90;;;;;;4931067;29;20131;-76
2023/03/24 08:30:31;;;;;;;14.07;2.40;;;13.90;99.90;;;;;;4925603;29;20103;-77
2023/03/24 08:33:00;;;;;;;11.70;2.33;;;14.10;99.90;;;;;;4926393;29;20028;-77
2023/03/24 08:35:31;;;;;;;7.10;2.10;;;14.10;99.90;;;;;;4926950;29;20071;-76
2023/03/24 08:38:00;;;;;;;13.45;2.30;;;14.10;99.90;;;;;;4929816;29;20441;-75
2023/03/24 08:40:28;;;;;;;13.13;2.55;;;14.00;99.90;;;;;;4937385;29;20035;-78
2023/03/24 08:42:57;;;;;;;13.88;2.75;;;14.10;99.90;;;;;;4927122;29;20035;-71
2023/03/24 08:45:26;;;;;;;13.05;4.57;;;14.00;99.90;;;;;;4928769;29;20023;-71
2023/03/24 08:47:52;;;;;;;14.27;2.88;;;14.10;99.90;;;;;;4933195;29;20032;-73
2023/03/24 08:50:20;;;;;;;11.68;2.00;;;14.20;99.90;;;;;;4931587;29;20032;-76
2023/03/24 08:52:47;;;;;;;17.73;2.42;;;14.30;99.90;;;;;;4928022;29;20016;-73
2023/03/24 08:55:16;;;;;;;10.82;2.58;;;14.40;99.90;;;;;;4929821;29;20043;-73
2023/03/24 08:57:42;;;;;;;12.30;2.80;;;14.70;99.90;;;;;;4929364;29;20123;-72
2023/03/24 09:00:15;;;;;;;17.70;3.15;;;15.00;99.90;;;;;;4932075;29;20101;-73
2023/03/24 09:02:46;;;;;;;8.93;2.30;;;15.00;99.90;;;;;;4926232;29;20032;-75
2023/03/24 09:05:14;;;;;;;13.40;2.40;;;15.00;99.90;;;;;;4924584;29;20035;-75
2023/03/24 09:07:40;;;;;;;10.07;1.98;;;15.00;99.90;;;;;;4933178;29;20082;-76
2023/03/24 09:10:08;;;;;;;12.73;2.20;;;15.00;99.90;;;;;;4931375;29;20459;-76
2023/03/24 09:12:35;;;;;;;14.60;3.70;;;15.00;99.90;;;;;;4930098;29;20370;-75
2023/03/24 09:15:01;;;;;;;11.52;2.15;;;15.20;99.90;;;;;;4930309;29;20523;-76
2023/03/24 09:17:27;;;;;;;12.10;2.20;;;15.10;99.90;;;;;;4933891;29;20057;-75
2023/03/24 09:19:52;;;;;;;9.38;2.35;;;14.80;99.90;;;;;;4932553;29;20036;-76
2023/03/24 09:22:18;;;;;;;11.43;3.25;;;14.70;99.90;;;;;;4929859;29;20099;-75
2023/03/24 09:24:44;;;;;;;12.73;2.55;;;14.60;99.90;;;;;;4927810;29;20028;-75
2023/03/24 09:27:10;;;;;;;10.18;2.03;;;14.60;99.90;;;;;;4930235;29;20370;-74
2023/03/24 09:29:35;;;;;;;11.60;2.30;;;14.50;99.90;;;;;;4927182;29;20051;-75
2023/03/24 09:32:01;;;;;;;11.43;3.20;;;14.60;99.90;;;;;;4927418;29;20031;-76
2023/03/24 09:34:27;;;;;;;10.23;2.72;;;14.60;99.90;;;;;;4934060;29;20024;-76
2023/03/24 09:36:52;;;;;;;7.88;2.20;;;14.60;99.90;;;;;;4936587;29;20043;-74
2023/03/24 09:39:18;;;;;;;10.82;2.20;;;14.60;99.90;;;;;;4930557;29;20564;-74
2023/03/24 09:41:46;;;;;;;10.95;2.33;;;14.50;99.90;;;;;;4927835;29;20115;-75
2023/03/24 09:44:26;;;;;;;12.38;2.53;;;14.50;99.90;;;;;;4934138;29;20028;-76
2023/03/24 09:47:24;;;;;;;9.77;2.10;;;14.60;99.90;;;;;;4935704;29;20028;-75
2023/03/24 09:49:52;;;;;;;9.18;1.92;;;14.60;99.90;;;;;;4926891;29;20050;-76
2023/03/24 09:52:23;;;;;;;10.35;2.25;;;14.70;99.90;;;;;;4925883;29;20020;-75
2023/03/24 09:54:57;;;;;;;7.57;2.22;;;14.70;99.90;;;;;;4934618;29;20083;-75
2023/03/24 09:57:36;;;;;;;11.27;2.50;;;14.90;99.90;;;;;;4922796;29;20091;-75
2023/03/24 10:00:30;;;;;;;11.38;2.35;;;14.90;99.90;;;;;;4931907;29;20027;-75
2023/03/24 10:03:11;;;;;;;9.57;2.20;;;15.00;99.90;;;;;;4929548;29;20482;-75
2023/03/24 10:05:44;;;;;;;11.20;2.17;;;14.80;99.90;;;;;;4928453;29;20034;-75
2023/03/24 10:08:15;;;;;;;6.65;2.15;;;14.80;99.90;;;;;;4928966;29;20031;-75
2023/03/24 10:10:56;;;;;;;7.83;1.80;;;14.70;99.90;;;;;;4926112;29;20032;-75
2023/03/24 10:13:41;;;;;;;14.68;2.05;;;14.70;99.90;;;;;;4925337;29;20290;-74
2023/03/24 10:16:13;;;;;;;12.15;2.92;;;14.70;99.90;;;;;;4929683;29;20991;-75
2023/03/24 10:18:43;;;;;;;10.27;1.88;;;14.80;99.90;;;;;;4928628;29;20024;-75
2023/03/24 10:21:19;;;;;;;12.57;1.83;;;15.00;99.90;;;;;;4930677;29;20034;-75
2023/03/24 10:23:58;;;;;;;11.60;2.20;;;15.10;99.90;;;;;;4929173;29;20019;-75
2023/03/24 10:26:48;;;;;;;7.07;2.17;;;15.20;99.90;;;;;;4928505;29;20167;-75
2023/03/24 10:29:35;;;;;;;11.95;2.28;;;15.00;99.90;;;;;;4930515;29;20034;-75
2023/03/24 10:32:20;;;;;;;10.40;2.92;;;15.00;99.90;;;;;;4925355;29;20549;-75
2023/03/24 10:34:50;;;;;;;11.23;2.55;;;14.90;99.90;;;;;;4932559;29;20067;-75
2023/03/24 10:37:16;;;;;;;13.20;2.30;;;14.90;99.90;;;;;;4937275;28;20110;-75
2023/03/24 10:39:42;;;;;;;14.50;2.75;;;14.80;99.90;;;;;;4926383;29;20426;-75
2023/03/24 10:42:18;;;;;;;10.95;2.63;;;14.80;99.90;;;;;;4928730;29;20553;-75
2023/03/24 10:44:46;;;;;;;12.13;2.97;;;14.80;99.90;;;;;;4936555;29;20035;-75
2023/03/24 10:47:13;;;;;;;12.57;2.83;;;15.10;99.90;;;;;;4931850;29;20027;-75
2023/03/24 10:49:52;;;;;;;9.60;2.22;;;15.00;99.90;;;;;;4930205;29;20145;-74
2023/03/24 10:52:18;;;;;;;9.80;2.53;;;15.10;99.90;;;;;;4926241;29;20031;-75
2023/03/24 10:54:55;;;;;;;11.38;2.28;;;15.40;99.90;;;;;;4930386;29;20036;-75
2023/03/24 10:57:22;;;;;;;9.13;2.53;;;15.50;99.90;;;;;;4927823;29;20042;-76
2023/03/24 11:00:00;;;;;;;8.25;2.42;;;15.70;99.90;;;;;;4921263;29;20051;-76
2023/03/24 11:02:29;;;;;;;11.80;2.00;;;15.70;99.90;;;;;;4927651;29;20023;-75
2023/03/24 11:04:55;;;;;;;11.40;2.33;;;15.60;99.90;;;;;;4925556;29;20039;-75
2023/03/24 11:07:23;;;;;;;9.60;2.42;;;15.60;99.90;;;;;;4927277;29;20028;-75
2023/03/24 11:10:09;;;;;;;11.48;1.73;;;15.60;99.90;;;;;;4932549;29;20111;-75
2023/03/24 11:12:37;;;;;;;15.82;2.60;;;15.60;99.90;;;;;;4930870;29;20043;-75
2023/03/24 11:15:15;;;;;;;9.88;1.92;;;15.60;99.90;;;;;;4924833;29;20028;-75
2023/03/24 11:17:41;;;;;;;9.15;1.98;;;15.60;99.90;;;;;;4928617;29;20032;-80
2023/03/24 11:20:20;;;;;;;10.77;2.05;;;15.60;99.90;;;;;;4932904;29;20031;-77
2023/03/24 11:23:01;;;;;;;10.68;2.13;;;15.60;99.90;;;;;;4928384;29;20039;-77
2023/03/24 11:25:28;;;;;;;5.28;1.88;;;15.60;99.90;;;;;;4927749;29;20500;-79
2023/03/24 11:27:59;;;;;;;11.25;2.03;;;15.70;99.90;;;;;;4928370;29;20061;-75
2023/03/24 11:30:30;;;;;;;6.90;1.65;;;15.70;99.90;;;;;;4925235;29;20080;-78
2023/03/24 11:32:57;;;;;;;4.57;1.58;;;15.60;99.90;;;;;;4928015;29;20039;-80
2023/03/24 11:35:24;;;;;;;12.65;2.10;;;15.60;99.90;;;;;;4929550;29;20028;-79
2023/03/24 11:37:49;;;;;;;6.22;1.88;;;15.90;99.90;;;;;;4933250;29;20404;-79
2023/03/24 11:40:22;;;;;;;8.20;1.85;;;16.00;99.90;;;;;;4933062;28;20036;-80
2023/03/24 11:42:57;;;;;;;7.50;1.67;;;16.00;99.90;;;;;;4936120;29;20163;-79
2023/03/24 11:45:39;;;;;;;9.70;1.92;;;16.00;99.90;;;;;;4925188;29;20082;-78
2023/03/24 11:48:22;;;;;;;10.20;2.03;;;16.10;99.90;;;;;;4931059;29;20036;-80
2023/03/24 11:50:50;;;;;;;6.15;1.90;;;16.30;99.90;;;;;;4929305;29;20034;-80
2023/03/24 11:53:27;;;;;;;7.53;1.90;;;16.50;99.90;;;;;;4927401;29;20055;-78
2023/03/24 11:56:08;;;;;;;8.25;2.15;;;16.80;99.90;;;;;;4925922;29;20035;-79
2023/03/24 11:58:48;;;;;;;9.93;1.70;;;16.80;99.90;;;;;;4930109;29;20489;-79
2023/03/24 12:01:20;;;;;;;7.10;1.90;;;17.10;99.90;;;;;;4925590;29;20024;-78
2023/03/24 12:03:57;;;;;;;9.38;1.83;;;17.40;99.90;;;;;;4925959;29;20032;-80
2023/03/24 12:07:06;;;;;;;6.72;2.28;;;17.10;99.90;;;;;;4922932;29;20155;-78
2023/03/24 12:09:41;;;;;;;8.02;1.60;;;16.70;99.90;;;;;;4929119;29;20122;-74
2023/03/24 12:12:25;;;;;;;9.48;1.85;;;16.50;99.90;;;;;;4929263;29;20027;-76
2023/03/24 12:15:12;;;;;;;6.53;1.30;;;16.30;99.90;;;;;;4924420;29;20019;-81
2023/03/24 12:17:46;;;;;;;9.05;1.48;;;16.40;99.90;;;;;;4925987;29;20036;-82
2023/03/24 12:20:20;;;;;;;9.48;1.65;;;16.40;99.90;;;;;;4929161;29;20050;-78
2023/03/24 12:22:54;;;;;;;9.73;2.50;;;16.50;99.90;;;;;;4924945;29;20084;-79
2023/03/24 12:25:47;;;;;;;6.13;1.65;;;16.40;99.90;;;;;;4930278;29;20123;-76
2023/03/24 12:28:28;;;;;;;;;;;16.40;99.90;;;;;;4925635;29;20042;-79
2023/03/24 12:31:25;;;;;;;5.22;1.50;;;16.30;99.90;;;;;;4937629;29;20023;-76
2023/03/24 12:34:15;;;;;;;3.40;1.35;;;16.00;99.90;;;;;;4927783;29;20053;-78
2023/03/24 12:37:12;;;;;;;7.18;1.50;;;15.60;99.90;;;;;;4932175;29;20114;-75
2023/03/24 12:39:54;;;;;;;3.05;1.42;;;15.50;99.90;;;;;;4928548;29;20040;-80
2023/03/24 12:42:22;;;;;;;11.05;2.67;;;15.40;99.90;;;;;;4931957;29;20027;-78
2023/03/24 12:45:18;;;;;;;6.30;1.70;;;15.30;99.90;;;;;;4901907;29;20082;-76
2023/03/24 12:48:12;;;;;;;10.40;2.30;;;15.20;99.90;;;;;;4930809;29;20106;-76
2023/03/24 12:50:50;;;;;;;5.90;2.05;;;14.90;99.90;;;;;;4927238;29;20034;-74
2023/03/24 12:53:46;;;;;;;12.88;3.08;;;14.70;99.90;;;;;;4929737;29;20037;-76
2023/03/24 12:56:19;;;;;;;7.13;2.08;;;14.50;99.90;;;;;;4929921;29;20028;-76
2023/03/24 12:58:53;;;;;;;5.35;1.83;;;14.60;99.90;;;;;;4927705;29;20056;-74
2023/03/24 13:01:34;;;;;;;5.78;2.03;;;14.60;99.90;;;;;;4922872;29;20137;-73
2023/03/24 13:04:06;;;;;;;9.50;2.00;;;14.70;99.90;;;;;;4927986;29;20031;-75
2023/03/24 13:06:43;;;;;;;10.18;1.70;;;14.80;99.90;;;;;;4928055;29;20035;-75
2023/03/24 13:09:24;;;;;;;4.97;1.73;;;15.00;99.90;;;;;;4925990;29;20032;-75